Time;durP1;ratioP1;P1;durP2;ratioP2;P2;SDS_P1;SDS_P2;PMS_P1;PMS_P2;Temp;Humidity;BMP_temperature;BMP_pressure;BME280_temperature;BME280_humidity;BME280_pressure;Samples;Min_cycle;Max_cycle;Signal;HPM_P1;HPM_P2
2021/11/15 00:00:33;;;;;;;39.40;19.98;;;;;;;8.64;100.00;102877.53;5010653;28;20100;-73
2021/11/15 00:02:59;;;;;;;39.17;19.08;;;;;;;8.64;100.00;102873.97;5013270;28;20044;-71
2021/11/15 00:05:24;;;;;;;41.55;21.23;;;;;;;8.65;100.00;102868.81;5010990;28;20394;-72
2021/11/15 00:07:50;;;;;;;36.10;19.42;;;;;;;8.63;100.00;102859.97;5011043;28;20018;-72
2021/11/15 00:10:16;;;;;;;35.45;19.40;;;;;;;8.67;100.00;102866.28;5014833;28;20061;-72
2021/11/15 00:12:51;;;;;;;37.38;19.50;;;;;;;8.68;100.00;102862.84;5013798;28;20037;-72
2021/11/15 00:15:17;;;;;;;36.13;19.35;;;;;;;8.68;100.00;102862.84;5012435;28;20453;-72
2021/11/15 00:17:42;;;;;;;34.25;19.48;;;;;;;8.66;100.00;102862.75;5011885;28;20137;-72
2021/11/15 00:20:08;;;;;;;38.28;19.80;;;;;;;8.63;100.00;102865.22;5010774;28;20556;-71
2021/11/15 00:22:33;;;;;;;37.95;19.65;;;;;;;8.62;100.00;102862.50;5011287;28;20030;-72
2021/11/15 00:24:59;;;;;;;32.65;18.10;;;;;;;8.64;100.00;102856.53;5010994;28;20029;-72
2021/11/15 00:27:24;;;;;;;36.10;19.83;;;;;;;8.63;100.00;102865.22;5012450;28;20034;-72
2021/11/15 00:29:50;;;;;;;41.53;20.00;;;;;;;8.60;100.00;102870.31;5011435;28;20996;-71
2021/11/15 00:32:16;;;;;;;35.05;20.35;;;;;;;8.59;100.00;102865.84;5011922;28;20029;-73
2021/11/15 00:34:41;;;;;;;34.65;19.23;;;;;;;8.59;100.00;102865.84;5012295;28;20034;-73
2021/11/15 00:37:06;;;;;;;37.90;20.52;;;;;;;8.60;100.00;102865.06;5010345;28;20029;-71
2021/11/15 00:39:32;;;;;;;37.38;20.48;;;;;;;8.58;100.00;102864.94;5012440;28;20025;-73
2021/11/15 00:41:57;;;;;;;36.30;20.05;;;;;;;8.59;100.00;102863.25;5007000;28;20478;-72
2021/11/15 00:44:23;;;;;;;39.08;20.42;;;;;;;8.58;100.00;102864.94;5012488;28;20104;-71
2021/11/15 00:46:49;;;;;;;42.30;20.45;;;;;;;8.56;100.00;102863.03;5011230;28;20092;-72
2021/11/15 00:49:14;;;;;;;42.55;20.55;;;;;;;8.54;100.00;102859.44;5011510;28;20029;-72
2021/11/15 00:51:40;;;;;;;34.85;19.85;;;;;;;8.52;100.00;102856.72;5011265;28;20026;-72
2021/11/15 00:54:05;;;;;;;39.38;20.27;;;;;;;8.53;100.00;102848.06;5025876;28;20111;-72
2021/11/15 00:56:30;;;;;;;37.00;20.15;;;;;;;8.52;100.00;102851.47;5009981;28;20026;-72
2021/11/15 00:58:56;;;;;;;38.97;20.02;;;;;;;8.53;100.00;102852.38;5009648;28;20030;-72
2021/11/15 01:01:21;;;;;;;34.55;18.85;;;;;;;8.55;100.00;102850.75;5011114;28;20025;-71
2021/11/15 01:03:47;;;;;;;33.42;18.02;;;;;;;8.55;100.00;102853.38;5017233;28;20030;-71
2021/11/15 01:06:13;;;;;;;30.42;16.98;;;;;;;8.54;100.00;102841.97;5013210;28;20091;-72
2021/11/15 01:08:38;;;;;;;36.83;19.00;;;;;;;8.52;100.00;102851.47;5015409;28;20576;-71
2021/11/15 01:11:05;;;;;;;31.50;18.17;;;;;;;8.52;100.00;102846.22;5016061;28;20021;-72
2021/11/15 01:13:31;;;;;;;38.72;18.77;;;;;;;8.54;100.00;102848.94;5012059;28;20033;-73
2021/11/15 01:15:57;;;;;;;35.05;18.80;;;;;;;8.51;100.00;102848.78;5011693;28;20343;-72
2021/11/15 01:18:22;;;;;;;33.10;18.67;;;;;;;8.50;100.00;102850.47;5010214;28;20054;-71
2021/11/15 01:20:48;;;;;;;28.90;17.63;;;;;;;8.49;100.00;102850.38;5010344;28;20371;-72
2021/11/15 01:23:14;;;;;;;30.77;17.45;;;;;;;8.50;100.00;102852.22;5009762;28;20548;-73
2021/11/15 01:25:40;;;;;;;26.73;17.15;;;;;;;8.50;100.00;102846.97;5010390;28;20485;-73
2021/11/15 01:28:07;;;;;;;27.83;16.92;;;;;;;8.49;100.00;102845.16;5010728;28;20032;-73
2021/11/15 01:30:34;;;;;;;29.08;16.40;;;;;;;8.49;100.00;102837.28;5011242;28;20033;-72
2021/11/15 01:33:00;;;;;;;24.63;15.27;;;;;;;8.51;100.00;102840.91;5010722;28;20032;-71
2021/11/15 01:35:26;;;;;;;27.05;16.20;;;;;;;8.49;100.00;102832.94;5012040;28;20029;-72
2021/11/15 01:37:53;;;;;;;28.85;16.30;;;;;;;8.50;100.00;102836.47;5010911;28;20038;-72
2021/11/15 01:40:25;;;;;;;24.88;15.70;;;;;;;8.48;100.00;102827.59;5018244;28;20095;-72
2021/11/15 01:42:52;;;;;;;28.13;15.90;;;;;;;8.47;100.00;102826.69;5010978;28;20022;-71
2021/11/15 01:45:23;;;;;;;30.23;17.38;;;;;;;8.48;100.00;102823.25;4993350;28;20096;-71
2021/11/15 01:47:55;;;;;;;29.95;17.08;;;;;;;8.45;99.79;102820.47;5008309;28;20180;-72
2021/11/15 01:50:22;;;;;;;28.52;16.30;;;;;;;8.42;100.00;102828.09;4997549;28;20137;-73
2021/11/15 01:52:48;;;;;;;26.55;15.82;;;;;;;8.42;100.00;102818.53;5014815;28;20402;-73
2021/11/15 01:55:16;;;;;;;30.80;16.65;;;;;;;8.43;100.00;102825.56;5015089;28;20077;-72
2021/11/15 01:57:42;;;;;;;29.55;17.05;;;;;;;8.43;100.00;102825.56;5013873;28;20109;-72
2021/11/15 02:00:12;;;;;;;27.13;15.90;;;;;;;8.46;100.00;102829.22;5015220;28;20034;-72
2021/11/15 02:02:39;;;;;;;25.92;15.85;;;;;;;8.44;100.00;102834.38;5014386;28;20042;-73
2021/11/15 02:05:05;;;;;;;30.67;18.10;;;;;;;8.46;100.00;102842.34;5013952;28;20111;-72
2021/11/15 02:07:31;;;;;;;27.42;16.58;;;;;;;8.46;100.00;102839.72;5013976;28;20112;-72
2021/11/15 02:09:56;;;;;;;26.15;15.85;;;;;;;8.43;100.00;102840.41;5014456;28;20034;-71
2021/11/15 02:12:21;;;;;;;27.42;16.02;;;;;;;8.42;100.00;102842.16;5013668;28;20037;-73
2021/11/15 02:14:47;;;;;;;28.50;16.60;;;;;;;8.41;100.00;102840.34;5014308;28;20034;-72
2021/11/15 02:17:12;;;;;;;27.13;15.90;;;;;;;8.43;100.00;102828.19;5010680;28;20053;-71
2021/11/15 02:19:39;;;;;;;33.47;17.48;;;;;;;8.42;100.00;102833.34;5014242;28;20033;-72
2021/11/15 02:22:04;;;;;;;29.55;16.58;;;;;;;8.40;100.00;102830.66;5012504;28;20425;-71
2021/11/15 02:24:31;;;;;;;28.98;16.90;;;;;;;8.42;100.00;102839.53;5014001;28;20033;-71
2021/11/15 02:26:56;;;;;;;27.60;16.48;;;;;;;8.41;100.00;102836.78;5014814;28;20053;-72
2021/11/15 02:29:22;;;;;;;31.50;17.95;;;;;;;8.38;100.00;102834.91;5011697;28;20030;-72
2021/11/15 02:31:47;;;;;;;28.55;16.63;;;;;;;8.38;100.00;102839.25;5015091;28;20030;-71
2021/11/15 02:34:13;;;;;;;26.77;17.25;;;;;;;8.38;100.00;102832.31;5014027;28;20053;-72
2021/11/15 02:36:38;;;;;;;30.38;16.58;;;;;;;8.40;100.00;102833.28;5013410;28;20492;-72
2021/11/15 02:39:05;;;;;;;27.27;17.02;;;;;;;8.38;100.00;102832.31;5014648;28;20049;-72
2021/11/15 02:41:31;;;;;;;26.27;15.90;;;;;;;8.35;100.00;102826.84;5014838;28;20104;-71
2021/11/15 02:43:58;;;;;;;27.80;16.25;;;;;;;8.36;100.00;102828.66;5014487;28;20088;-71
2021/11/15 02:46:24;;;;;;;30.90;16.83;;;;;;;8.35;99.94;102818.09;5014658;28;20076;-72
2021/11/15 02:48:50;;;;;;;28.25;17.02;;;;;;;8.34;99.88;102826.78;5014454;28;20034;-72
2021/11/15 02:51:15;;;;;;;28.58;15.85;;;;;;;8.33;100.00;102818.00;5013395;28;20056;-72
2021/11/15 02:53:43;;;;;;;28.65;16.00;;;;;;;8.31;100.00;102817.00;5012675;28;20136;-72
2021/11/15 02:56:08;;;;;;;25.70;15.88;;;;;;;8.31;99.96;102814.38;5014132;28;20466;-72
2021/11/15 02:58:34;;;;;;;25.52;16.00;;;;;;;8.30;99.82;102820.44;5011235;28;20083;-72
2021/11/15 03:01:07;;;;;;;29.33;16.48;;;;;;;8.33;100.00;102823.25;5011398;28;20033;-71
2021/11/15 03:03:32;;;;;;;28.35;16.35;;;;;;;8.34;100.00;102822.44;5012388;28;20025;-71
2021/11/15 03:05:58;;;;;;;27.55;16.05;;;;;;;8.33;100.00;102823.25;5014483;28;20017;-71
2021/11/15 03:08:25;;;;;;;29.42;16.80;;;;;;;8.34;100.00;102819.81;5020521;28;20029;-71
2021/11/15 03:10:54;;;;;;;28.60;15.63;;;;;;;8.32;99.99;102825.78;5012503;28;20034;-72
2021/11/15 03:13:20;;;;;;;27.70;16.08;;;;;;;8.32;99.79;102816.19;5013281;28;20068;-72
2021/11/15 03:15:50;;;;;;;29.35;16.00;;;;;;;8.31;100.00;102818.72;5011765;28;20079;-71
2021/11/15 03:18:18;;;;;;;27.33;16.50;;;;;;;8.29;100.00;102821.28;5013504;28;20050;-72
2021/11/15 03:20:51;;;;;;;30.15;17.60;;;;;;;8.27;100.00;102822.88;5011460;28;20037;-72
2021/11/15 03:23:19;;;;;;;33.53;15.80;;;;;;;8.28;100.00;102825.59;5013558;28;20029;-72
2021/11/15 03:25:46;;;;;;;29.27;16.27;;;;;;;8.28;100.00;102829.94;5012199;28;20421;-71
2021/11/15 03:28:14;;;;;;;30.27;16.98;;;;;;;8.22;100.00;102819.09;5012342;28;20044;-71
2021/11/15 03:30:40;;;;;;;28.55;17.10;;;;;;;8.23;100.00;102820.91;5012047;28;20030;-71
2021/11/15 03:33:07;;;;;;;26.58;16.00;;;;;;;8.25;100.00;102819.28;5011630;28;20044;-71
2021/11/15 03:35:32;;;;;;;26.45;16.83;;;;;;;8.24;100.00;102812.22;5028510;28;20062;-72
2021/11/15 03:37:58;;;;;;;25.77;15.43;;;;;;;8.23;100.00;102815.66;5011721;28;20054;-72
2021/11/15 03:40:25;;;;;;;24.10;15.73;;;;;;;8.21;100.00;102817.31;5012258;28;20080;-72
2021/11/15 03:43:03;;;;;;;30.48;16.83;;;;;;;8.23;99.97;102818.28;5012063;28;20021;-72
2021/11/15 03:45:30;;;;;;;28.17;16.27;;;;;;;8.24;100.00;102813.13;5008211;28;20478;-73
2021/11/15 03:47:56;;;;;;;25.98;15.35;;;;;;;8.25;100.00;102814.03;5011244;28;20022;-73
2021/11/15 03:50:23;;;;;;;25.35;14.90;;;;;;;8.26;100.00;102822.00;5012201;28;20087;-72
2021/11/15 03:52:50;;;;;;;26.17;14.88;;;;;;;8.27;99.48;102823.81;5011466;28;20029;-72
2021/11/15 03:55:18;;;;;;;26.33;15.68;;;;;;;8.23;99.01;102819.19;5011236;28;20030;-72
2021/11/15 03:57:45;;;;;;;24.30;13.80;;;;;;;8.24;98.35;102820.09;5011992;28;20041;-72
2021/11/15 04:00:14;;;;;;;23.15;13.63;;;;;;;8.19;97.50;102816.28;5012431;28;20030;-72
2021/11/15 04:02:41;;;;;;;29.92;15.30;;;;;;;8.19;97.90;102818.91;5010400;28;20128;-72
2021/11/15 04:05:10;;;;;;;29.40;14.57;;;;;;;8.17;98.02;102821.44;5025286;28;20048;-71
2021/11/15 04:07:39;;;;;;;25.73;13.55;;;;;;;8.17;98.40;102812.69;5027451;28;20386;-71
2021/11/15 04:10:19;;;;;;;30.30;15.88;;;;;;;8.14;99.22;102820.34;5009034;28;20891;-71
2021/11/15 04:12:46;;;;;;;29.33;15.25;;;;;;;8.12;100.00;102816.75;5010146;28;20045;-72
2021/11/15 04:15:13;;;;;;;30.17;15.02;;;;;;;8.12;100.00;102822.91;5011689;28;20021;-73
2021/11/15 04:17:40;;;;;;;31.23;15.10;;;;;;;8.10;100.00;102828.06;5011072;28;20041;-72
2021/11/15 04:20:10;;;;;;;31.88;15.75;;;;;;;8.11;100.00;102826.31;5010742;28;20028;-72
2021/11/15 04:22:36;;;;;;;28.38;16.00;;;;;;;8.08;100.00;102829.69;5010974;28;20044;-72
2021/11/15 04:25:06;;;;;;;32.22;15.35;;;;;;;8.11;100.00;102821.06;5011993;28;20030;-73
2021/11/15 04:27:32;;;;;;;32.08;16.52;;;;;;;8.12;100.00;102833.38;5011111;28;20038;-73
2021/11/15 04:29:57;;;;;;;30.05;16.27;;;;;;;8.12;100.00;102827.25;5012954;28;20121;-72
2021/11/15 04:32:23;;;;;;;32.20;16.05;;;;;;;8.10;100.00;102820.19;5011901;28;20057;-72
2021/11/15 04:34:48;;;;;;;32.90;15.45;;;;;;;8.08;100.00;102824.44;5008568;28;20030;-72
2021/11/15 04:37:13;;;;;;;29.35;14.88;;;;;;;8.12;100.00;102828.13;5012712;28;20120;-72
2021/11/15 04:39:39;;;;;;;28.73;15.38;;;;;;;8.14;100.00;102816.03;5010089;28;20026;-73
2021/11/15 04:42:05;;;;;;;30.63;15.70;;;;;;;8.15;100.00;102822.16;5011384;28;20478;-71
2021/11/15 04:44:30;;;;;;;32.80;16.08;;;;;;;8.10;100.00;102827.16;5011392;28;20061;-72
2021/11/15 04:46:56;;;;;;;27.48;16.33;;;;;;;8.14;100.00;102828.22;5012318;28;20505;-73
2021/11/15 04:49:21;;;;;;;31.17;16.40;;;;;;;8.10;100.00;102828.06;5015393;28;20045;-72
2021/11/15 04:51:47;;;;;;;29.42;15.98;;;;;;;8.12;100.00;102832.50;5012712;28;20037;-72
2021/11/15 04:54:14;;;;;;;35.33;17.52;;;;;;;8.15;100.00;102830.03;5027016;28;20038;-72
2021/11/15 04:56:40;;;;;;;36.03;16.70;;;;;;;8.09;100.00;102826.25;5010003;28;20038;-72
2021/11/15 04:59:05;;;;;;;29.48;15.38;;;;;;;8.09;100.00;102836.72;5011205;28;20053;-72
2021/11/15 05:01:31;;;;;;;28.92;15.77;;;;;;;8.10;100.00;102846.41;5011709;28;20108;-73
2021/11/15 05:03:56;;;;;;;31.58;15.90;;;;;;;8.10;100.00;102837.66;5009736;28;20402;-73
2021/11/15 05:06:22;;;;;;;33.65;15.77;;;;;;;8.08;100.00;102832.31;5011290;28;20481;-73
2021/11/15 05:08:48;;;;;;;32.55;14.95;;;;;;;8.06;100.00;102844.41;5011616;28;20030;-71
2021/11/15 05:11:13;;;;;;;30.05;15.35;;;;;;;8.06;100.00;102844.41;5009987;28;20036;-71
2021/11/15 05:13:39;;;;;;;30.95;14.45;;;;;;;8.06;100.00;102844.41;5011302;28;20038;-73
2021/11/15 05:16:04;;;;;;;31.02;15.02;;;;;;;8.05;100.00;102839.09;5010295;28;20120;-73
2021/11/15 05:18:29;;;;;;;26.77;14.02;;;;;;;8.02;100.00;102826.69;5009904;28;20404;-71
2021/11/15 05:20:55;;;;;;;30.23;15.38;;;;;;;7.99;100.00;102831.78;5012467;28;20444;-71
2021/11/15 05:23:20;;;;;;;30.25;15.35;;;;;;;8.01;100.00;102835.38;5011334;28;20069;-71
2021/11/15 05:25:45;;;;;;;26.02;14.15;;;;;;;7.97;100.00;102833.38;5011409;28;20015;-71
2021/11/15 05:28:11;;;;;;;28.60;14.55;;;;;;;7.97;100.00;102838.63;5010186;28;20128;-71
2021/11/15 05:30:37;;;;;;;28.05;14.32;;;;;;;7.98;100.00;102839.56;5009225;28;20036;-72
2021/11/15 05:33:03;;;;;;;27.52;14.20;;;;;;;7.96;100.00;102847.28;5010994;28;20385;-72
2021/11/15 05:35:29;;;;;;;28.73;14.30;;;;;;;7.95;100.00;102840.28;5010971;28;20037;-73
2021/11/15 05:37:55;;;;;;;28.65;14.73;;;;;;;7.92;100.00;102840.06;5009990;28;20034;-71
2021/11/15 05:40:23;;;;;;;28.38;13.95;;;;;;;7.95;100.00;102840.28;5012270;28;20053;-72
2021/11/15 05:42:49;;;;;;;32.40;14.30;;;;;;;7.94;100.00;102846.31;5011166;28;20017;-73
2021/11/15 05:45:16;;;;;;;25.52;13.63;;;;;;;7.93;100.00;102847.13;5009558;28;20084;-72
2021/11/15 05:47:42;;;;;;;28.67;15.45;;;;;;;7.96;100.00;102844.69;5015250;28;20018;-71
2021/11/15 05:50:09;;;;;;;25.48;13.48;;;;;;;7.93;100.00;102849.75;5011300;28;20092;-72
2021/11/15 05:52:40;;;;;;;26.00;14.27;;;;;;;7.90;100.00;102849.56;5010824;28;20046;-72
2021/11/15 05:55:08;;;;;;;21.15;13.27;;;;;;;7.89;100.00;102842.50;5006508;28;20079;-72
2021/11/15 05:57:33;;;;;;;27.90;14.50;;;;;;;7.90;100.00;102839.09;5009473;28;20025;-72
2021/11/15 05:59:59;;;;;;;25.05;13.18;;;;;;;7.86;100.00;102839.72;5011201;28;20048;-72
2021/11/15 06:02:24;;;;;;;28.42;15.23;;;;;;;7.85;100.00;102851.00;5007770;28;20095;-73
2021/11/15 06:04:49;;;;;;;26.73;14.23;;;;;;;7.84;100.00;102852.72;5010310;28;20121;-71
2021/11/15 06:07:15;;;;;;;30.45;15.77;;;;;;;7.88;100.00;102848.56;5008605;28;20040;-73
2021/11/15 06:09:40;;;;;;;26.27;15.20;;;;;;;7.88;100.00;102856.41;5013369;28;20075;-72
2021/11/15 06:12:06;;;;;;;25.77;14.40;;;;;;;7.86;100.00;102850.19;5011776;28;20398;-72
2021/11/15 06:14:31;;;;;;;26.10;14.35;;;;;;;7.83;100.00;102850.03;5009733;28;20028;-72
2021/11/15 06:16:57;;;;;;;32.50;16.08;;;;;;;7.85;100.00;102862.38;5010571;28;20053;-72
2021/11/15 06:19:22;;;;;;;30.08;15.13;;;;;;;7.83;100.00;102857.88;5009740;28;20033;-72
2021/11/15 06:21:48;;;;;;;28.00;15.18;;;;;;;7.84;100.00;102854.44;5007723;28;20033;-72
2021/11/15 06:24:13;;;;;;;26.27;14.65;;;;;;;7.82;100.00;102858.69;5011090;28;20101;-72
2021/11/15 06:26:38;;;;;;;27.95;13.43;;;;;;;7.81;100.00;102851.63;5010633;28;20085;-72
2021/11/15 06:29:04;;;;;;;27.33;14.95;;;;;;;7.82;100.00;102858.69;5010732;28;20029;-72
2021/11/15 06:31:29;;;;;;;28.10;15.73;;;;;;;7.80;100.00;102857.69;5010482;28;20060;-73
2021/11/15 06:33:54;;;;;;;27.67;15.07;;;;;;;7.79;100.00;102858.50;5011025;28;20029;-77
2021/11/15 06:36:24;;;;;;;28.55;15.50;;;;;;;7.81;100.00;102864.72;5017797;28;20449;-77
2021/11/15 06:38:53;;;;;;;29.88;15.57;;;;;;;7.78;100.00;102856.69;5017085;28;20034;-76
2021/11/15 06:41:20;;;;;;;27.73;15.63;;;;;;;7.78;100.00;102862.84;5015344;28;20101;-77
2021/11/15 06:43:45;;;;;;;27.92;14.68;;;;;;;7.78;100.00;102851.47;5017197;28;20033;-76
2021/11/15 06:46:11;;;;;;;26.05;15.23;;;;;;;7.79;100.00;102858.50;5018083;28;20557;-77
2021/11/15 06:48:42;;;;;;;26.20;15.88;;;;;;;7.75;100.00;102858.31;5016619;28;20371;-75
2021/11/15 06:51:10;;;;;;;28.23;16.27;;;;;;;7.73;100.00;102857.31;5016781;28;20088;-76
2021/11/15 06:53:36;;;;;;;28.70;16.38;;;;;;;7.75;100.00;102857.41;5015844;28;20041;-75
2021/11/15 06:56:03;;;;;;;28.60;16.70;;;;;;;7.72;100.00;102852.88;5015240;28;20029;-77
2021/11/15 06:58:30;;;;;;;28.55;17.20;;;;;;;7.71;100.00;102858.94;5018283;28;20036;-77
2021/11/15 07:00:56;;;;;;;30.52;16.05;;;;;;;7.72;100.00;102847.66;5034647;28;20029;-77
2021/11/15 07:03:21;;;;;;;31.08;16.92;;;;;;;7.72;100.00;102858.13;5014674;28;20303;-77
2021/11/15 07:05:48;;;;;;;25.33;15.93;;;;;;;7.69;100.00;102865.81;5015365;28;20029;-77
2021/11/15 07:08:14;;;;;;;28.70;16.02;;;;;;;7.72;100.00;102871.22;5015345;28;20041;-77
2021/11/15 07:10:39;;;;;;;30.25;16.95;;;;;;;7.72;100.00;102873.84;5017787;28;20084;-79
2021/11/15 07:13:05;;;;;;;28.58;16.83;;;;;;;7.70;100.00;102883.31;5016262;28;20014;-76
2021/11/15 07:15:30;;;;;;;32.03;17.27;;;;;;;7.71;100.00;102893.00;5015253;28;20041;-77
2021/11/15 07:17:55;;;;;;;29.65;16.77;;;;;;;7.72;100.00;102889.56;5018091;28;20057;-75
2021/11/15 07:20:21;;;;;;;28.83;16.98;;;;;;;7.71;100.00;102887.75;5017497;28;20045;-76
2021/11/15 07:22:48;;;;;;;32.70;15.85;;;;;;;7.71;100.00;102887.75;5015456;28;20029;-78
2021/11/15 07:25:17;;;;;;;32.17;18.05;;;;;;;7.75;100.00;102891.47;5017690;28;20029;-76
2021/11/15 07:27:42;;;;;;;29.42;16.98;;;;;;;7.74;100.00;102892.28;5015591;28;20496;-75
2021/11/15 07:30:09;;;;;;;31.60;17.58;;;;;;;7.72;100.00;102894.81;5013162;28;20084;-76
2021/11/15 07:32:36;;;;;;;29.35;16.27;;;;;;;7.69;100.00;102889.41;5012297;28;20057;-76
2021/11/15 07:35:02;;;;;;;31.67;16.33;;;;;;;7.68;100.00;102891.94;5013159;28;20057;-77
2021/11/15 07:37:28;;;;;;;32.63;17.52;;;;;;;7.64;100.00;102889.91;5009553;28;20125;-76
2021/11/15 07:39:53;;;;;;;35.92;18.05;;;;;;;7.63;100.00;102889.00;5013438;28;20083;-77
2021/11/15 07:42:19;;;;;;;32.50;16.83;;;;;;;7.62;100.00;102891.53;5015594;28;20047;-78
2021/11/15 07:44:46;;;;;;;33.67;18.20;;;;;;;7.62;100.00;102891.53;5013910;28;20018;-78
2021/11/15 07:47:14;;;;;;;34.70;18.38;;;;;;;7.63;100.00;102889.00;5014823;28;20045;-78
2021/11/15 07:49:41;;;;;;;31.02;18.17;;;;;;;7.62;100.00;102887.19;5015867;28;20034;-78
2021/11/15 07:52:07;;;;;;;30.83;16.95;;;;;;;7.62;100.00;102897.66;5014680;28;20085;-77
2021/11/15 07:54:33;;;;;;;28.35;16.15;;;;;;;7.63;100.00;102895.97;5013787;28;20030;-79
2021/11/15 07:57:00;;;;;;;32.10;17.75;;;;;;;7.64;100.00;102890.81;5016205;28;20030;-78
2021/11/15 07:59:26;;;;;;;29.38;16.98;;;;;;;7.63;100.00;102886.38;5021318;28;20033;-78
2021/11/15 08:01:52;;;;;;;27.27;16.05;;;;;;;7.61;100.00;102885.41;5012898;28;20041;-77
2021/11/15 08:04:18;;;;;;;29.88;17.60;;;;;;;7.62;100.00;102884.56;5013649;28;20069;-78
2021/11/15 08:06:43;;;;;;;27.77;16.02;;;;;;;7.62;100.00;102887.19;5011921;28;20083;-78
2021/11/15 08:09:09;;;;;;;26.58;15.93;;;;;;;7.62;100.00;102881.94;5013199;28;20022;-78
2021/11/15 08:11:35;;;;;;;28.27;16.02;;;;;;;7.63;100.00;102883.75;5011901;28;20434;-78
2021/11/15 08:14:01;;;;;;;30.42;16.35;;;;;;;7.64;100.00;102880.34;5013685;28;20033;-78
2021/11/15 08:16:27;;;;;;;28.00;15.80;;;;;;;7.64;100.00;102889.91;5014072;28;20030;-79
2021/11/15 08:18:52;;;;;;;27.73;15.30;;;;;;;7.65;100.00;102887.41;5014641;28;20502;-79
2021/11/15 08:21:23;;;;;;;25.58;14.48;;;;;;;7.62;100.00;102884.56;5014367;28;20381;-78
2021/11/15 08:23:51;;;;;;;27.17;15.32;;;;;;;7.62;100.00;102884.56;5014131;28;20037;-78
2021/11/15 08:27:00;;;;;;;27.65;16.63;;;;;;;7.64;100.00;102880.34;5014274;28;20030;-79
2021/11/15 08:29:27;;;;;;;26.98;15.70;;;;;;;7.62;100.00;102881.94;5016489;28;20033;-79
2021/11/15 08:31:57;;;;;;;25.67;14.63;;;;;;;7.61;100.00;102880.16;5015240;28;20029;-79
2021/11/15 08:34:23;;;;;;;26.50;15.32;;;;;;;7.60;100.00;102883.59;5012413;28;20478;-79
2021/11/15 08:36:48;;;;;;;27.10;15.00;;;;;;;7.58;100.00;102879.94;5012793;28;20038;-79
2021/11/15 08:39:20;;;;;;;28.58;15.90;;;;;;;7.65;100.00;102886.47;5014265;28;20030;-79
2021/11/15 08:41:50;;;;;;;26.98;15.38;;;;;;;7.67;100.00;102883.13;5013509;28;20026;-79
2021/11/15 08:44:17;;;;;;;27.92;15.27;;;;;;;7.64;100.00;102875.09;5013211;28;20042;-79
2021/11/15 08:46:45;;;;;;;27.35;15.80;;;;;;;7.63;100.00;102877.63;5012087;28;20029;-79
2021/11/15 08:49:12;;;;;;;27.20;14.10;;;;;;;7.62;100.00;102876.72;5016894;28;20037;-79
2021/11/15 08:51:39;;;;;;;28.23;14.80;;;;;;;7.63;100.00;102875.91;5016290;28;20486;-79
2021/11/15 08:54:08;;;;;;;25.08;14.23;;;;;;;7.68;100.00;102871.84;5015945;28;20025;-80
2021/11/15 08:56:34;;;;;;;26.20;15.15;;;;;;;7.65;100.00;102869.06;5016701;28;20034;-79
2021/11/15 08:59:00;;;;;;;27.58;14.40;;;;;;;7.66;100.00;102878.69;5019256;28;20495;-79
2021/11/15 09:01:26;;;;;;;28.63;15.02;;;;;;;7.67;100.00;102874.38;5015240;28;20046;-78
2021/11/15 09:03:53;;;;;;;25.42;14.70;;;;;;;7.63;100.00;102882.88;5015715;28;20044;-72
2021/11/15 09:06:20;;;;;;;25.75;15.57;;;;;;;7.61;100.00;102882.78;5014999;28;20080;-73
2021/11/15 09:08:47;;;;;;;28.15;15.45;;;;;;;7.56;100.00;102876.34;5015337;28;20362;-71
2021/11/15 09:11:13;;;;;;;30.40;16.92;;;;;;;7.54;100.00;102872.72;5015071;28;20029;-76
2021/11/15 09:13:43;;;;;;;29.08;16.27;;;;;;;7.55;100.00;102864.94;5014512;28;20064;-76
2021/11/15 09:16:08;;;;;;;29.90;16.10;;;;;;;7.63;100.00;102880.25;5012931;28;20037;-75
2021/11/15 09:18:35;;;;;;;27.55;16.38;;;;;;;7.62;100.00;102876.72;5013375;28;20056;-77
2021/11/15 09:21:01;;;;;;;30.40;16.83;;;;;;;7.60;100.00;102878.34;5013140;28;20117;-75
2021/11/15 09:23:27;;;;;;;31.83;16.48;;;;;;;7.60;100.00;102873.09;5012983;28;20029;-75
2021/11/15 09:25:53;;;;;;;31.58;17.52;;;;;;;7.57;100.00;102871.19;5027003;28;20362;-76
2021/11/15 09:28:18;;;;;;;33.28;16.98;;;;;;;7.59;100.00;102873.91;5016824;28;20076;-75
2021/11/15 09:30:45;;;;;;;32.20;16.58;;;;;;;7.59;100.00;102861.69;5020097;28;20022;-75
2021/11/15 09:33:11;;;;;;;28.60;15.18;;;;;;;7.63;100.00;102864.53;5016047;28;20059;-74
2021/11/15 09:35:38;;;;;;;26.70;16.00;;;;;;;7.61;100.00;102864.44;5029672;28;20430;-74
2021/11/15 09:38:04;;;;;;;31.15;16.95;;;;;;;7.59;100.00;102866.94;5029275;28;20128;-76
2021/11/15 09:40:29;;;;;;;26.55;16.58;;;;;;;7.64;100.00;102864.63;5026984;28;20028;-75
2021/11/15 09:42:57;;;;;;;30.13;16.55;;;;;;;7.65;100.00;102866.44;5019174;28;20025;-75
2021/11/15 09:45:24;;;;;;;27.38;15.88;;;;;;;7.65;100.00;102869.06;5016898;28;20060;-74
2021/11/15 09:47:51;;;;;;;35.22;17.75;;;;;;;7.67;100.00;102869.16;5021016;28;20049;-77
2021/11/15 09:50:18;;;;;;;32.60;17.55;;;;;;;7.67;100.00;102867.41;5017321;28;20104;-75
2021/11/15 09:52:44;;;;;;;35.50;18.50;;;;;;;7.66;100.00;102857.75;5021636;28;20032;-75
2021/11/15 09:55:10;;;;;;;32.60;17.60;;;;;;;7.66;100.00;102849.00;5019991;28;20040;-76
2021/11/15 09:57:41;;;;;;;32.72;17.50;;;;;;;7.67;100.00;102854.31;5013910;28;20025;-75
2021/11/15 10:00:14;;;;;;;31.83;17.00;;;;;;;7.66;100.00;102854.22;5012062;28;20088;-77
2021/11/15 10:02:41;;;;;;;30.77;18.25;;;;;;;7.68;100.00;102860.47;5026833;28;20088;-76
2021/11/15 10:05:08;;;;;;;31.10;17.35;;;;;;;7.67;100.00;102853.44;5014252;28;20051;-79
2021/11/15 10:07:54;;;;;;;31.48;16.67;;;;;;;7.66;100.00;102857.75;5017655;28;20030;-79
2021/11/15 10:10:40;;;;;;;33.95;18.05;;;;;;;7.69;100.00;102868.44;5015017;28;20109;-79
2021/11/15 10:13:17;;;;;;;32.85;17.95;;;;;;;7.72;100.00;102868.59;5016598;28;20036;-78
2021/11/15 10:15:44;;;;;;;30.80;16.80;;;;;;;7.72;100.00;102868.59;5015200;28;20034;-79
2021/11/15 10:18:12;;;;;;;32.67;17.83;;;;;;;7.68;100.00;102866.63;5016704;28;20192;-79
2021/11/15 10:20:50;;;;;;;30.40;16.27;;;;;;;7.66;100.00;102865.59;4999144;28;20466;-73
2021/11/15 10:24:00;;;;;;;30.45;16.75;;;;;;;7.65;100.00;102869.06;5014028;28;20373;-80
2021/11/15 10:26:31;;;;;;;32.00;16.55;;;;;;;7.63;100.00;102862.81;5016727;28;20022;-79
2021/11/15 10:29:06;;;;;;;28.83;17.30;;;;;;;7.65;100.00;102855.97;5020362;28;20022;-79
2021/11/15 10:31:35;;;;;;;33.70;17.92;;;;;;;7.65;100.00;102855.03;5025752;28;20037;-80
2021/11/15 10:34:03;;;;;;;29.85;17.05;;;;;;;7.66;100.00;102851.59;5021782;28;20461;-78
2021/11/15 10:36:47;;;;;;;30.13;16.50;;;;;;;7.64;100.00;102854.13;5024627;28;20526;-79
2021/11/15 10:39:13;;;;;;;29.95;16.38;;;;;;;7.65;100.00;102853.34;5017676;28;20038;-78
2021/11/15 10:41:38;;;;;;;27.15;16.02;;;;;;;7.66;100.00;102852.50;5020859;28;21487;-79
2021/11/15 10:44:10;;;;;;;32.58;15.93;;;;;;;7.70;100.00;102854.50;5020497;28;20112;-78
2021/11/15 10:46:37;;;;;;;29.75;16.50;;;;;;;7.70;100.00;102859.72;5031677;28;20355;-79
2021/11/15 10:49:08;;;;;;;29.08;15.73;;;;;;;7.70;100.00;102859.72;5016395;28;20037;-78
2021/11/15 10:51:54;;;;;;;30.80;16.58;;;;;;;7.64;100.00;102862.00;5021649;28;20032;-79
2021/11/15 10:54:50;;;;;;;30.33;15.65;;;;;;;7.63;100.00;102854.06;5014750;28;20034;-78
2021/11/15 10:57:22;;;;;;;26.80;15.18;;;;;;;7.62;100.00;102840.03;5018415;28;20030;-79
2021/11/15 11:00:11;;;;;;;28.45;14.93;;;;;;;7.66;100.00;102841.13;5019143;28;20030;-79
2021/11/15 11:02:44;;;;;;;27.48;14.07;;;;;;;7.66;100.00;102835.88;5015248;28;20042;-79
2021/11/15 11:05:28;;;;;;;28.30;15.33;;;;;;;7.59;100.00;102842.47;5007667;28;20076;-78
2021/11/15 11:08:15;;;;;;;29.13;15.50;;;;;;;7.56;100.00;102832.69;5015531;28;20069;-79
2021/11/15 11:10:57;;;;;;;26.73;14.60;;;;;;;7.57;100.00;102834.53;5012094;28;20040;-79